sensor_id;sensor_type;location;lat;lon;timestamp;pressure;altitude;pressure_sealevel;temperature;humidity
3096;BME280;1558;42.700;23.360;2023-02-18T00:01:28;96081.47;;;4.00;73.53
3096;BME280;1558;42.700;23.360;2023-02-18T00:03:57;96080.72;;;3.89;73.87
3096;BME280;1558;42.700;23.360;2023-02-18T00:06:27;96018.91;;;3.42;75.16
3096;BME280;1558;42.700;23.360;2023-02-18T00:08:55;96088.41;;;4.01;75.50
3096;BME280;1558;42.700;23.360;2023-02-18T00:11:28;96080.66;;;4.09;75.50
3096;BME280;1558;42.700;23.360;2023-02-18T00:13:59;96077.66;;;4.26;75.21
3096;BME280;1558;42.700;23.360;2023-02-18T00:16:29;96073.13;;;4.27;75.19
3096;BME280;1558;42.700;23.360;2023-02-18T00:18:58;96071.28;;;4.22;74.53
3096;BME280;1558;42.700;23.360;2023-02-18T00:21:27;96059.50;;;4.28;74.74
3096;BME280;1558;42.700;23.360;2023-02-18T00:23:55;96054.72;;;4.25;75.16
3096;BME280;1558;42.700;23.360;2023-02-18T00:26:23;96046.50;;;4.06;74.82
3096;BME280;1558;42.700;23.360;2023-02-18T00:28:51;96028.72;;;3.72;73.89
3096;BME280;1558;42.700;23.360;2023-02-18T00:31:23;96044.72;;;3.57;74.92
3096;BME280;1558;42.700;23.360;2023-02-18T00:33:53;95957.06;;;2.54;76.19
3096;BME280;1558;42.700;23.360;2023-02-18T00:36:21;96015.94;;;2.83;77.40
3096;BME280;1558;42.700;23.360;2023-02-18T00:38:51;96030.91;;;2.99;78.96
3096;BME280;1558;42.700;23.360;2023-02-18T00:41:21;96035.16;;;3.15;79.60
3096;BME280;1558;42.700;23.360;2023-02-18T00:43:49;96039.94;;;3.28;79.72
3096;BME280;1558;42.700;23.360;2023-02-18T00:46:17;96031.16;;;3.43;78.91
3096;BME280;1558;42.700;23.360;2023-02-18T00:48:45;95972.81;;;3.11;79.35
3096;BME280;1558;42.700;23.360;2023-02-18T00:51:14;96002.91;;;3.37;79.23
3096;BME280;1558;42.700;23.360;2023-02-18T00:53:42;96044.75;;;3.52;78.57
3096;BME280;1558;42.700;23.360;2023-02-18T00:56:10;96021.81;;;3.40;78.27
3096;BME280;1558;42.700;23.360;2023-02-18T00:58:39;96016.75;;;3.24;79.17
3096;BME280;1558;42.700;23.360;2023-02-18T01:01:08;95968.56;;;2.80;78.93
3096;BME280;1558;42.700;23.360;2023-02-18T01:03:36;96028.22;;;2.84;79.12
3096;BME280;1558;42.700;23.360;2023-02-18T01:06:06;95952.97;;;2.07;80.15
3096;BME280;1558;42.700;23.360;2023-02-18T01:08:37;96045.91;;;2.28;80.95
3096;BME280;1558;42.700;23.360;2023-02-18T01:11:07;96029.50;;;1.89;82.07
3096;BME280;1558;42.700;23.360;2023-02-18T01:13:35;96035.88;;;1.88;83.95
3096;BME280;1558;42.700;23.360;2023-02-18T01:16:03;96023.13;;;1.90;85.65
3096;BME280;1558;42.700;23.360;2023-02-18T01:18:32;96018.63;;;1.96;86.67
3096;BME280;1558;42.700;23.360;2023-02-18T01:20:59;95991.75;;;1.92;86.54
3096;BME280;1558;42.700;23.360;2023-02-18T01:23:27;96030.09;;;2.01;86.03
3096;BME280;1558;42.700;23.360;2023-02-18T01:25:57;96016.81;;;2.12;87.25
3096;BME280;1558;42.700;23.360;2023-02-18T01:28:25;95972.38;;;1.97;87.27
3096;BME280;1558;42.700;23.360;2023-02-18T01:30:53;96024.91;;;2.37;86.67
3096;BME280;1558;42.700;23.360;2023-02-18T01:33:21;96016.66;;;2.28;86.80
3096;BME280;1558;42.700;23.360;2023-02-18T01:35:51;95959.06;;;1.97;87.85
3096;BME280;1558;42.700;23.360;2023-02-18T01:38:19;96020.09;;;2.34;87.13
3096;BME280;1558;42.700;23.360;2023-02-18T01:40:49;96020.97;;;2.59;88.15
3096;BME280;1558;42.700;23.360;2023-02-18T01:43:19;96022.84;;;2.64;87.33
3096;BME280;1558;42.700;23.360;2023-02-18T01:46:09;96015.06;;;2.47;86.24
3096;BME280;1558;42.700;23.360;2023-02-18T01:48:41;96032.41;;;2.55;86.51
3096;BME280;1558;42.700;23.360;2023-02-18T01:51:16;96036.59;;;2.31;87.11
3096;BME280;1558;42.700;23.360;2023-02-18T01:53:49;96040.66;;;1.86;87.54
3096;BME280;1558;42.700;23.360;2023-02-18T01:56:24;96046.84;;;1.55;88.43
3096;BME280;1558;42.700;23.360;2023-02-18T01:58:56;95925.75;;;0.86;90.45
3096;BME280;1558;42.700;23.360;2023-02-18T02:01:26;96040.81;;;1.28;89.95
3096;BME280;1558;42.700;23.360;2023-02-18T02:03:55;96044.66;;;1.10;91.77
3096;BME280;1558;42.700;23.360;2023-02-18T02:06:24;96034.03;;;1.10;92.84
3096;BME280;1558;42.700;23.360;2023-02-18T02:08:55;96029.09;;;1.24;94.24
3096;BME280;1558;42.700;23.360;2023-02-18T02:11:37;96030.69;;;1.25;93.50
3096;BME280;1558;42.700;23.360;2023-02-18T02:14:17;95984.78;;;0.98;93.80
3096;BME280;1558;42.700;23.360;2023-02-18T02:16:54;96021.06;;;1.19;94.75
3096;BME280;1558;42.700;23.360;2023-02-18T02:19:59;96024.56;;;1.24;94.97
3096;BME280;1558;42.700;23.360;2023-02-18T02:22:59;96039.13;;;1.54;95.20
3096;BME280;1558;42.700;23.360;2023-02-18T02:25:49;96037.47;;;1.84;94.77
3096;BME280;1558;42.700;23.360;2023-02-18T02:28:46;95997.63;;;1.94;94.85
3096;BME280;1558;42.700;23.360;2023-02-18T02:31:40;96021.19;;;2.43;93.82
3096;BME280;1558;42.700;23.360;2023-02-18T02:34:39;96015.91;;;2.63;92.14
3096;BME280;1558;42.700;23.360;2023-02-18T02:37:15;96008.50;;;2.75;91.77
3096;BME280;1558;42.700;23.360;2023-02-18T02:39:56;96007.16;;;2.88;90.86
3096;BME280;1558;42.700;23.360;2023-02-18T02:42:34;95988.78;;;2.96;89.28
3096;BME280;1558;42.700;23.360;2023-02-18T02:45:10;95978.41;;;2.95;89.00
3096;BME280;1558;42.700;23.360;2023-02-18T02:47:47;96001.56;;;3.14;87.59
3096;BME280;1558;42.700;23.360;2023-02-18T02:50:20;96001.84;;;3.18;87.29
3096;BME280;1558;42.700;23.360;2023-02-18T02:52:54;96004.78;;;3.31;87.04
3096;BME280;1558;42.700;23.360;2023-02-18T02:55:24;96013.03;;;3.25;87.01
3096;BME280;1558;42.700;23.360;2023-02-18T02:57:53;96024.22;;;3.22;85.91
3096;BME280;1558;42.700;23.360;2023-02-18T03:00:26;96023.41;;;3.21;85.74
3096;BME280;1558;42.700;23.360;2023-02-18T03:03:16;96021.28;;;2.93;85.14
3096;BME280;1558;42.700;23.360;2023-02-18T03:06:03;96009.47;;;2.39;85.50
3096;BME280;1558;42.700;23.360;2023-02-18T03:08:40;96034.84;;;1.94;86.63
3096;BME280;1558;42.700;23.360;2023-02-18T03:11:13;96000.34;;;1.58;87.80
3096;BME280;1558;42.700;23.360;2023-02-18T03:13:54;95998.91;;;1.35;89.92
3096;BME280;1558;42.700;23.360;2023-02-18T03:16:27;96022.09;;;1.13;90.68
3096;BME280;1558;42.700;23.360;2023-02-18T03:19:04;96030.19;;;0.96;92.71
3096;BME280;1558;42.700;23.360;2023-02-18T03:21:38;96030.38;;;0.85;94.21
3096;BME280;1558;42.700;23.360;2023-02-18T03:24:12;96045.03;;;0.92;95.90
3096;BME280;1558;42.700;23.360;2023-02-18T03:26:46;96041.09;;;0.95;95.82
3096;BME280;1558;42.700;23.360;2023-02-18T03:29:18;96047.69;;;0.92;96.87
3096;BME280;1558;42.700;23.360;2023-02-18T03:31:51;96035.88;;;0.78;97.38
3096;BME280;1558;42.700;23.360;2023-02-18T03:34:24;96068.63;;;0.89;97.76
3096;BME280;1558;42.700;23.360;2023-02-18T03:36:55;96070.34;;;1.00;99.27
3096;BME280;1558;42.700;23.360;2023-02-18T03:39:26;96060.97;;;0.92;98.62
3096;BME280;1558;42.700;23.360;2023-02-18T03:41:56;96067.69;;;1.05;99.41
3096;BME280;1558;42.700;23.360;2023-02-18T03:44:24;96061.69;;;1.14;99.23
3096;BME280;1558;42.700;23.360;2023-02-18T03:46:52;96048.63;;;1.08;99.47
3096;BME280;1558;42.700;23.360;2023-02-18T03:49:20;96070.69;;;1.40;99.46
3096;BME280;1558;42.700;23.360;2023-02-18T03:51:48;96078.16;;;1.48;98.64
3096;BME280;1558;42.700;23.360;2023-02-18T03:54:17;96076.03;;;1.50;98.74
3096;BME280;1558;42.700;23.360;2023-02-18T03:56:45;96073.34;;;1.45;98.35
3096;BME280;1558;42.700;23.360;2023-02-18T03:59:13;96071.06;;;1.59;97.63
3096;BME280;1558;42.700;23.360;2023-02-18T04:01:41;96067.38;;;1.65;97.81
3096;BME280;1558;42.700;23.360;2023-02-18T04:04:09;96065.28;;;1.72;97.03
3096;BME280;1558;42.700;23.360;2023-02-18T04:06:37;96070.41;;;1.83;97.37
3096;BME280;1558;42.700;23.360;2023-02-18T04:09:05;96050.81;;;1.94;97.27
3096;BME280;1558;42.700;23.360;2023-02-18T04:11:37;96002.78;;;1.64;96.29
3096;BME280;1558;42.700;23.360;2023-02-18T04:14:06;96043.13;;;2.03;95.85
3096;BME280;1558;42.700;23.360;2023-02-18T04:16:35;96054.63;;;2.14;94.94
3096;BME280;1558;42.700;23.360;2023-02-18T04:19:03;96041.72;;;1.85;93.87
3096;BME280;1558;42.700;23.360;2023-02-18T04:21:31;96050.91;;;1.68;94.67
3096;BME280;1558;42.700;23.360;2023-02-18T04:24:00;96045.75;;;1.51;95.69
3096;BME280;1558;42.700;23.360;2023-02-18T04:26:28;96043.13;;;1.56;96.06
3096;BME280;1558;42.700;23.360;2023-02-18T04:28:57;96041.50;;;1.50;96.57
3096;BME280;1558;42.700;23.360;2023-02-18T04:31:25;96044.16;;;1.50;97.41
3096;BME280;1558;42.700;23.360;2023-02-18T04:33:53;96045.09;;;1.71;98.09
3096;BME280;1558;42.700;23.360;2023-02-18T04:36:21;96037.94;;;1.76;96.91
3096;BME280;1558;42.700;23.360;2023-02-18T04:38:50;96027.78;;;1.63;96.13
3096;BME280;1558;42.700;23.360;2023-02-18T04:41:18;96036.81;;;1.67;96.95
3096;BME280;1558;42.700;23.360;2023-02-18T04:43:46;96050.13;;;1.67;97.11
3096;BME280;1558;42.700;23.360;2023-02-18T04:46:15;96044.16;;;1.50;96.72
3096;BME280;1558;42.700;23.360;2023-02-18T04:48:43;96044.56;;;1.32;96.83
3096;BME280;1558;42.700;23.360;2023-02-18T04:51:11;96040.69;;;1.45;97.42
3096;BME280;1558;42.700;23.360;2023-02-18T04:53:39;96049.50;;;1.55;97.60
3096;BME280;1558;42.700;23.360;2023-02-18T04:56:07;96071.97;;;1.38;97.71
3096;BME280;1558;42.700;23.360;2023-02-18T04:58:35;96074.38;;;1.39;98.43
3096;BME280;1558;42.700;23.360;2023-02-18T05:01:04;96052.63;;;1.42;97.74
3096;BME280;1558;42.700;23.360;2023-02-18T05:03:33;96065.56;;;1.70;98.86
3096;BME280;1558;42.700;23.360;2023-02-18T05:06:01;96060.34;;;1.85;98.21
3096;BME280;1558;42.700;23.360;2023-02-18T05:08:29;96066.53;;;2.01;96.83
3096;BME280;1558;42.700;23.360;2023-02-18T05:10:57;96051.16;;;1.61;96.11
3096;BME280;1558;42.700;23.360;2023-02-18T05:13:25;96047.97;;;1.59;97.03
3096;BME280;1558;42.700;23.360;2023-02-18T05:15:53;96046.44;;;1.78;98.29
3096;BME280;1558;42.700;23.360;2023-02-18T05:18:40;96044.97;;;2.02;97.93
3096;BME280;1558;42.700;23.360;2023-02-18T05:21:08;96034.16;;;2.19;97.02
3096;BME280;1558;42.700;23.360;2023-02-18T05:23:37;96012.59;;;2.16;95.43
3096;BME280;1558;42.700;23.360;2023-02-18T05:26:05;96023.00;;;2.27;95.12
3096;BME280;1558;42.700;23.360;2023-02-18T05:28:33;96020.63;;;2.31;95.21
3096;BME280;1558;42.700;23.360;2023-02-18T05:31:01;95980.41;;;2.17;94.49
3096;BME280;1558;42.700;23.360;2023-02-18T05:33:29;96000.41;;;2.35;93.59
3096;BME280;1558;42.700;23.360;2023-02-18T05:35:59;96052.13;;;2.64;93.09
3096;BME280;1558;42.700;23.360;2023-02-18T05:38:27;96064.63;;;2.53;92.61
3096;BME280;1558;42.700;23.360;2023-02-18T05:40:56;96053.47;;;2.61;93.86
3096;BME280;1558;42.700;23.360;2023-02-18T05:43:24;96061.63;;;2.35;93.54
3096;BME280;1558;42.700;23.360;2023-02-18T05:45:52;96052.25;;;2.22;94.05
3096;BME280;1558;42.700;23.360;2023-02-18T05:48:20;96049.28;;;2.09;93.54
3096;BME280;1558;42.700;23.360;2023-02-18T05:50:47;95994.78;;;1.59;94.65
3096;BME280;1558;42.700;23.360;2023-02-18T05:53:20;96065.47;;;2.02;95.21
3096;BME280;1558;42.700;23.360;2023-02-18T05:55:48;96048.19;;;1.99;96.35
3096;BME280;1558;42.700;23.360;2023-02-18T05:58:16;96034.38;;;2.08;96.13
3096;BME280;1558;42.700;23.360;2023-02-18T06:00:44;96065.44;;;2.54;95.89
3096;BME280;1558;42.700;23.360;2023-02-18T06:03:12;96067.00;;;2.55;95.12
3096;BME280;1558;42.700;23.360;2023-02-18T06:05:39;96068.53;;;2.36;94.25
3096;BME280;1558;42.700;23.360;2023-02-18T06:08:07;96062.69;;;2.34;94.68
3096;BME280;1558;42.700;23.360;2023-02-18T06:10:38;96061.72;;;2.65;95.44
3096;BME280;1558;42.700;23.360;2023-02-18T06:13:06;96062.31;;;3.02;95.67
3096;BME280;1558;42.700;23.360;2023-02-18T06:15:34;96066.06;;;3.16;94.11
3096;BME280;1558;42.700;23.360;2023-02-18T06:18:02;96044.22;;;3.04;92.69
3096;BME280;1558;42.700;23.360;2023-02-18T06:20:31;96054.59;;;3.31;92.30
3096;BME280;1558;42.700;23.360;2023-02-18T06:22:58;96050.63;;;3.33;91.43
3096;BME280;1558;42.700;23.360;2023-02-18T06:25:26;96046.63;;;3.56;90.89
3096;BME280;1558;42.700;23.360;2023-02-18T06:27:55;96047.91;;;3.84;89.99
3096;BME280;1558;42.700;23.360;2023-02-18T06:30:23;96047.06;;;4.03;89.54
3096;BME280;1558;42.700;23.360;2023-02-18T06:32:51;96036.63;;;4.07;89.07
3096;BME280;1558;42.700;23.360;2023-02-18T06:35:19;96041.38;;;4.20;87.35
3096;BME280;1558;42.700;23.360;2023-02-18T06:37:47;96016.16;;;3.82;87.37
3096;BME280;1558;42.700;23.360;2023-02-18T06:40:15;96053.97;;;4.04;86.92
3096;BME280;1558;42.700;23.360;2023-02-18T06:42:44;96053.19;;;4.04;86.99
3096;BME280;1558;42.700;23.360;2023-02-18T06:45:13;96038.28;;;3.88;86.79
3096;BME280;1558;42.700;23.360;2023-02-18T06:47:41;96042.75;;;4.07;87.77
3096;BME280;1558;42.700;23.360;2023-02-18T06:50:09;96054.75;;;4.10;86.79
3096;BME280;1558;42.700;23.360;2023-02-18T06:52:37;96059.06;;;4.01;86.63
3096;BME280;1558;42.700;23.360;2023-02-18T06:55:06;96046.72;;;4.20;87.28
3096;BME280;1558;42.700;23.360;2023-02-18T06:57:35;96057.94;;;4.17;86.86
3096;BME280;1558;42.700;23.360;2023-02-18T07:00:03;96055.88;;;4.04;86.47
3096;BME280;1558;42.700;23.360;2023-02-18T07:02:32;96052.63;;;4.07;86.50
3096;BME280;1558;42.700;23.360;2023-02-18T07:05:00;96031.78;;;4.14;86.74
3096;BME280;1558;42.700;23.360;2023-02-18T07:07:28;96052.28;;;4.82;86.06
3096;BME280;1558;42.700;23.360;2023-02-18T07:09:56;96051.38;;;5.41;84.35
3096;BME280;1558;42.700;23.360;2023-02-18T07:12:25;96020.00;;;5.18;81.51
3096;BME280;1558;42.700;23.360;2023-02-18T07:14:53;96040.03;;;5.20;80.37
3096;BME280;1558;42.700;23.360;2023-02-18T07:17:21;96040.13;;;5.05;78.96
3096;BME280;1558;42.700;23.360;2023-02-18T07:19:50;96039.78;;;5.17;79.55
3096;BME280;1558;42.700;23.360;2023-02-18T07:22:18;96047.66;;;5.37;78.85
3096;BME280;1558;42.700;23.360;2023-02-18T07:24:50;96029.50;;;5.34;78.43
3096;BME280;1558;42.700;23.360;2023-02-18T07:27:19;96041.56;;;5.31;78.21
3096;BME280;1558;42.700;23.360;2023-02-18T07:29:48;96036.41;;;5.69;78.05
3096;BME280;1558;42.700;23.360;2023-02-18T07:32:17;95883.22;;;5.06;77.07
3096;BME280;1558;42.700;23.360;2023-02-18T07:34:45;96051.38;;;6.03;75.36
3096;BME280;1558;42.700;23.360;2023-02-18T07:37:15;96048.72;;;5.98;75.45
3096;BME280;1558;42.700;23.360;2023-02-18T07:39:44;96028.94;;;5.94;75.11
3096;BME280;1558;42.700;23.360;2023-02-18T07:42:12;96043.09;;;6.24;74.68
3096;BME280;1558;42.700;23.360;2023-02-18T07:44:41;96046.69;;;6.38;73.27
3096;BME280;1558;42.700;23.360;2023-02-18T07:47:12;96038.41;;;6.58;73.44
3096;BME280;1558;42.700;23.360;2023-02-18T07:49:41;96042.47;;;6.74;72.50
3096;BME280;1558;42.700;23.360;2023-02-18T07:52:09;96033.69;;;6.68;71.41
3096;BME280;1558;42.700;23.360;2023-02-18T07:54:39;96041.53;;;6.83;71.98
3096;BME280;1558;42.700;23.360;2023-02-18T07:57:06;96042.34;;;6.84;71.19
3096;BME280;1558;42.700;23.360;2023-02-18T07:59:35;96033.25;;;6.80;70.54
3096;BME280;1558;42.700;23.360;2023-02-18T08:02:03;96035.34;;;7.20;70.74
3096;BME280;1558;42.700;23.360;2023-02-18T08:04:33;96014.25;;;7.32;68.66
3096;BME280;1558;42.700;23.360;2023-02-18T08:07:03;96028.03;;;8.04;68.62
3096;BME280;1558;42.700;23.360;2023-02-18T08:09:31;96049.53;;;9.13;66.35
3096;BME280;1558;42.700;23.360;2023-02-18T08:12:01;96050.75;;;9.95;62.63
3096;BME280;1558;42.700;23.360;2023-02-18T08:14:29;96030.91;;;10.61;59.63
3096;BME280;1558;42.700;23.360;2023-02-18T08:16:57;96032.34;;;10.59;57.87
3096;BME280;1558;42.700;23.360;2023-02-18T08:19:25;96032.03;;;10.21;57.42
3096;BME280;1558;42.700;23.360;2023-02-18T08:21:53;96033.28;;;10.54;57.38
3096;BME280;1558;42.700;23.360;2023-02-18T08:24:21;96025.91;;;11.63;56.87
3096;BME280;1558;42.700;23.360;2023-02-18T08:26:49;96021.16;;;11.34;54.07
3096;BME280;1558;42.700;23.360;2023-02-18T08:29:28;96013.78;;;10.66;54.31
3096;BME280;1558;42.700;23.360;2023-02-18T08:31:56;96033.50;;;10.75;54.96
3096;BME280;1558;42.700;23.360;2023-02-18T08:34:25;96028.75;;;10.80;54.59
3096;BME280;1558;42.700;23.360;2023-02-18T08:36:53;96018.84;;;10.50;54.98
3096;BME280;1558;42.700;23.360;2023-02-18T08:39:21;96009.88;;;10.33;54.75
3096;BME280;1558;42.700;23.360;2023-02-18T08:41:49;95997.56;;;10.49;54.84
3096;BME280;1558;42.700;23.360;2023-02-18T08:44:17;95998.00;;;10.34;54.68
3096;BME280;1558;42.700;23.360;2023-02-18T08:46:46;96014.06;;;10.47;54.59
3096;BME280;1558;42.700;23.360;2023-02-18T08:49:15;96023.22;;;10.29;54.63
3096;BME280;1558;42.700;23.360;2023-02-18T08:51:46;95983.53;;;9.99;54.84
3096;BME280;1558;42.700;23.360;2023-02-18T08:54:14;96028.56;;;9.98;55.18
3096;BME280;1558;42.700;23.360;2023-02-18T08:56:42;96038.13;;;9.82;54.67
3096;BME280;1558;42.700;23.360;2023-02-18T08:59:10;96032.63;;;9.87;55.20
3096;BME280;1558;42.700;23.360;2023-02-18T09:01:38;96012.94;;;9.78;55.41
3096;BME280;1558;42.700;23.360;2023-02-18T09:04:07;96027.44;;;10.22;56.06
3096;BME280;1558;42.700;23.360;2023-02-18T09:06:36;96015.97;;;10.47;54.73
3096;BME280;1558;42.700;23.360;2023-02-18T09:09:04;96012.38;;;10.60;54.66
3096;BME280;1558;42.700;23.360;2023-02-18T09:11:33;96019.41;;;11.04;54.77
3096;BME280;1558;42.700;23.360;2023-02-18T09:14:01;96015.13;;;11.54;54.06
3096;BME280;1558;42.700;23.360;2023-02-18T09:16:29;96012.75;;;11.52;52.94
3096;BME280;1558;42.700;23.360;2023-02-18T09:18:57;96004.81;;;11.47;52.51
3096;BME280;1558;42.700;23.360;2023-02-18T09:21:26;96016.59;;;11.69;52.67
3096;BME280;1558;42.700;23.360;2023-02-18T09:23:55;96015.59;;;11.56;51.74
3096;BME280;1558;42.700;23.360;2023-02-18T09:26:24;96004.72;;;12.07;51.96
3096;BME280;1558;42.700;23.360;2023-02-18T09:28:54;96007.22;;;12.21;50.81
3096;BME280;1558;42.700;23.360;2023-02-18T09:31:24;95850.97;;;11.60;50.17
3096;BME280;1558;42.700;23.360;2023-02-18T09:33:54;95994.94;;;12.90;49.44
3096;BME280;1558;42.700;23.360;2023-02-18T09:36:23;95955.91;;;13.12;48.41
3096;BME280;1558;42.700;23.360;2023-02-18T09:38:52;95991.25;;;13.57;48.34
3096;BME280;1558;42.700;23.360;2023-02-18T09:41:33;95989.59;;;14.09;47.19
3096;BME280;1558;42.700;23.360;2023-02-18T09:44:06;95989.22;;;13.99;45.12
3096;BME280;1558;42.700;23.360;2023-02-18T09:46:40;95986.38;;;13.83;45.94
3096;BME280;1558;42.700;23.360;2023-02-18T09:49:14;95991.31;;;13.81;45.28
3096;BME280;1558;42.700;23.360;2023-02-18T09:51:43;95989.94;;;14.20;46.03
3096;BME280;1558;42.700;23.360;2023-02-18T09:54:17;95956.97;;;13.73;45.33
3096;BME280;1558;42.700;23.360;2023-02-18T09:56:47;95991.31;;;13.69;45.84
3096;BME280;1558;42.700;23.360;2023-02-18T09:59:18;95982.94;;;13.21;45.54
3096;BME280;1558;42.700;23.360;2023-02-18T10:01:48;95967.78;;;12.99;46.52
3096;BME280;1558;42.700;23.360;2023-02-18T10:04:20;95985.75;;;13.66;46.59
3096;BME280;1558;42.700;23.360;2023-02-18T10:06:50;95972.88;;;14.19;45.00
3096;BME280;1558;42.700;23.360;2023-02-18T10:09:27;95969.81;;;14.09;44.31
3096;BME280;1558;42.700;23.360;2023-02-18T10:12:03;95960.38;;;14.51;44.67
3096;BME280;1558;42.700;23.360;2023-02-18T10:14:34;95950.72;;;15.30;43.81
3096;BME280;1558;42.700;23.360;2023-02-18T10:17:03;95957.47;;;15.76;43.18
3096;BME280;1558;42.700;23.360;2023-02-18T10:19:34;95946.31;;;16.55;41.76
3096;BME280;1558;42.700;23.360;2023-02-18T10:22:04;95924.84;;;17.04;40.17
3096;BME280;1558;42.700;23.360;2023-02-18T10:24:36;95945.53;;;17.82;38.13
3096;BME280;1558;42.700;23.360;2023-02-18T10:27:06;95951.09;;;18.31;37.05
3096;BME280;1558;42.700;23.360;2023-02-18T10:29:35;95931.34;;;18.41;36.12
3096;BME280;1558;42.700;23.360;2023-02-18T10:32:08;95909.03;;;18.12;34.62
3096;BME280;1558;42.700;23.360;2023-02-18T10:34:40;95920.06;;;18.65;34.36
3096;BME280;1558;42.700;23.360;2023-02-18T10:37:33;95911.13;;;18.94;33.02
3096;BME280;1558;42.700;23.360;2023-02-18T10:40:10;95912.97;;;18.86;32.28
3096;BME280;1558;42.700;23.360;2023-02-18T10:42:50;95916.69;;;18.26;31.58
3096;BME280;1558;42.700;23.360;2023-02-18T10:45:27;95900.00;;;18.54;32.29
3096;BME280;1558;42.700;23.360;2023-02-18T10:48:08;95893.94;;;18.93;31.26
3096;BME280;1558;42.700;23.360;2023-02-18T10:50:39;95843.75;;;18.79;30.63
3096;BME280;1558;42.700;23.360;2023-02-18T10:53:13;95876.41;;;18.98;31.06
3096;BME280;1558;42.700;23.360;2023-02-18T10:55:46;95881.59;;;19.70;30.41
3096;BME280;1558;42.700;23.360;2023-02-18T10:58:25;95883.72;;;19.50;30.04
3096;BME280;1558;42.700;23.360;2023-02-18T11:00:53;95875.59;;;18.94;30.21
3096;BME280;1558;42.700;23.360;2023-02-18T11:03:22;95882.19;;;18.93;30.76
3096;BME280;1558;42.700;23.360;2023-02-18T11:05:52;95709.75;;;17.41;31.00
3096;BME280;1558;42.700;23.360;2023-02-18T11:08:23;95894.38;;;18.20;31.03
3096;BME280;1558;42.700;23.360;2023-02-18T11:10:56;95882.56;;;18.16;31.24
3096;BME280;1558;42.700;23.360;2023-02-18T11:13:26;95859.31;;;18.49;31.23
3096;BME280;1558;42.700;23.360;2023-02-18T11:15:58;95861.75;;;18.31;30.98
3096;BME280;1558;42.700;23.360;2023-02-18T11:18:31;95860.00;;;17.74;31.35
3096;BME280;1558;42.700;23.360;2023-02-18T11:21:02;95864.38;;;17.37;32.17
3096;BME280;1558;42.700;23.360;2023-02-18T11:23:31;95858.34;;;17.09;31.77
3096;BME280;1558;42.700;23.360;2023-02-18T11:26:02;95844.16;;;16.30;32.61
3096;BME280;1558;42.700;23.360;2023-02-18T11:28:42;95847.91;;;16.41;33.20
3096;BME280;1558;42.700;23.360;2023-02-18T11:31:17;95836.16;;;16.37;33.19
3096;BME280;1558;42.700;23.360;2023-02-18T11:33:49;95836.31;;;16.28;33.04
3096;BME280;1558;42.700;23.360;2023-02-18T11:36:22;95832.75;;;16.59;33.08
3096;BME280;1558;42.700;23.360;2023-02-18T11:38:53;95836.13;;;16.87;33.30
3096;BME280;1558;42.700;23.360;2023-02-18T11:41:32;95835.75;;;17.27;33.26
3096;BME280;1558;42.700;23.360;2023-02-18T11:44:02;95829.47;;;17.46;32.98
3096;BME280;1558;42.700;23.360;2023-02-18T11:46:31;95817.25;;;17.59;32.51
3096;BME280;1558;42.700;23.360;2023-02-18T11:49:11;95773.72;;;17.89;32.80
3096;BME280;1558;42.700;23.360;2023-02-18T11:51:47;95803.13;;;18.25;32.04
3096;BME280;1558;42.700;23.360;2023-02-18T11:54:24;95810.66;;;18.58;32.03
3096;BME280;1558;42.700;23.360;2023-02-18T11:56:59;95805.06;;;18.77;32.13
3096;BME280;1558;42.700;23.360;2023-02-18T11:59:31;95800.09;;;18.86;31.97
3096;BME280;1558;42.700;23.360;2023-02-18T12:02:18;95785.31;;;18.90;32.34
3096;BME280;1558;42.700;23.360;2023-02-18T12:04:57;95791.00;;;19.12;31.94
3096;BME280;1558;42.700;23.360;2023-02-18T12:07:30;95782.72;;;19.01;31.83
3096;BME280;1558;42.700;23.360;2023-02-18T12:10:10;95790.59;;;19.43;32.01
3096;BME280;1558;42.700;23.360;2023-02-18T12:12:45;95782.84;;;19.48;31.67
3096;BME280;1558;42.700;23.360;2023-02-18T12:15:17;95659.69;;;18.68;31.44
3096;BME280;1558;42.700;23.360;2023-02-18T12:21:09;95759.28;;;19.81;31.46
3096;BME280;1558;42.700;23.360;2023-02-18T12:23:47;95766.94;;;18.58;32.24
3096;BME280;1558;42.700;23.360;2023-02-18T12:26:22;95762.25;;;17.80;33.32
3096;BME280;1558;42.700;23.360;2023-02-18T12:29:05;95759.56;;;17.38;34.04
3096;BME280;1558;42.700;23.360;2023-02-18T12:31:56;95720.72;;;16.99;34.94
3096;BME280;1558;42.700;23.360;2023-02-18T12:34:38;95745.63;;;17.43;34.89
3096;BME280;1558;42.700;23.360;2023-02-18T12:40:26;95736.69;;;17.65;35.24
3096;BME280;1558;42.700;23.360;2023-02-18T12:43:07;95749.78;;;18.05;34.80
3096;BME280;1558;42.700;23.360;2023-02-18T12:45:52;95725.88;;;18.24;34.46
3096;BME280;1558;42.700;23.360;2023-02-18T12:48:35;95722.63;;;18.15;34.26
3096;BME280;1558;42.700;23.360;2023-02-18T12:51:13;95721.47;;;18.16;34.19
3096;BME280;1558;42.700;23.360;2023-02-18T12:54:06;95724.94;;;18.13;34.23
3096;BME280;1558;42.700;23.360;2023-02-18T12:56:50;95705.84;;;17.87;34.51
3096;BME280;1558;42.700;23.360;2023-02-18T12:59:43;95720.09;;;18.30;34.32
3096;BME280;1558;42.700;23.360;2023-02-18T13:02:27;95725.06;;;18.24;33.83
3096;BME280;1558;42.700;23.360;2023-02-18T13:05:04;95711.47;;;18.27;34.23
3096;BME280;1558;42.700;23.360;2023-02-18T13:07:41;95720.78;;;18.49;33.51
3096;BME280;1558;42.700;23.360;2023-02-18T13:10:39;95716.53;;;18.25;33.53
3096;BME280;1558;42.700;23.360;2023-02-18T13:13:15;95713.00;;;18.25;33.30
3096;BME280;1558;42.700;23.360;2023-02-18T13:15:47;95697.22;;;17.85;32.96
3096;BME280;1558;42.700;23.360;2023-02-18T13:18:23;95712.66;;;17.74;33.40
3096;BME280;1558;42.700;23.360;2023-02-18T13:20:56;95712.50;;;17.90;33.71
3096;BME280;1558;42.700;23.360;2023-02-18T13:23:29;95713.53;;;17.33;34.40
3096;BME280;1558;42.700;23.360;2023-02-18T13:26:00;95721.00;;;17.17;35.02
3096;BME280;1558;42.700;23.360;2023-02-18T13:28:34;95632.91;;;16.67;35.36
3096;BME280;1558;42.700;23.360;2023-02-18T13:31:15;95704.41;;;17.03;35.39
3096;BME280;1558;42.700;23.360;2023-02-18T13:33:51;95713.84;;;16.67;36.35
3096;BME280;1558;42.700;23.360;2023-02-18T13:36:35;95726.06;;;16.73;36.53
3096;BME280;1558;42.700;23.360;2023-02-18T13:39:05;95717.47;;;16.52;36.67
3096;BME280;1558;42.700;23.360;2023-02-18T13:41:36;95719.41;;;16.36;36.76
3096;BME280;1558;42.700;23.360;2023-02-18T13:44:09;95721.66;;;16.30;37.13
3096;BME280;1558;42.700;23.360;2023-02-18T13:46:50;95723.84;;;16.24;37.25
3096;BME280;1558;42.700;23.360;2023-02-18T13:49:22;95721.06;;;16.21;37.63